Time;durP1;ratioP1;P1;durP2;ratioP2;P2;SDS_P1;SDS_P2;PMS_P1;PMS_P2;Temp;Humidity;BMP_temperature;BMP_pressure;BME280_temperature;BME280_humidity;BME280_pressure;Samples;Min_cycle;Max_cycle;Signal;HPM_P1;HPM_P2
2022/11/15 00:01:37;;;;;;;10.73;9.53;;;8.90;99.90;;;;;;5017895;28;20262;-89
2022/11/15 00:04:05;;;;;;;10.37;9.30;;;8.90;99.90;;;;;;5018605;28;20215;-87
2022/11/15 00:06:31;;;;;;;11.27;9.77;;;9.00;99.90;;;;;;5024170;28;20203;-89
2022/11/15 00:09:00;;;;;;;10.30;9.40;;;9.00;99.90;;;;;;5024041;28;20194;-87
2022/11/15 00:11:26;;;;;;;10.87;9.87;;;8.90;99.90;;;;;;5026087;28;20229;-87
2022/11/15 00:13:55;;;;;;;11.23;10.20;;;9.00;99.90;;;;;;5018161;28;20211;-87
2022/11/15 00:16:22;;;;;;;10.67;9.77;;;9.00;99.90;;;;;;5024982;28;20861;-88
2022/11/15 00:18:48;;;;;;;9.70;8.90;;;9.00;99.90;;;;;;5020446;28;20314;-89
2022/11/15 00:21:14;;;;;;;10.13;9.10;;;9.00;99.90;;;;;;5025212;28;20215;-89
2022/11/15 00:23:40;;;;;;;9.87;8.97;;;9.00;99.90;;;;;;5023588;28;20188;-90
2022/11/15 00:26:07;;;;;;;9.90;9.00;;;9.00;99.90;;;;;;5017838;28;20190;-88
2022/11/15 00:28:33;;;;;;;10.00;9.10;;;9.00;99.90;;;;;;5023369;28;20194;-89
2022/11/15 00:31:03;;;;;;;10.20;9.30;;;8.90;99.90;;;;;;5007566;28;20732;-91
2022/11/15 00:33:29;;;;;;;9.73;8.57;;;9.00;99.90;;;;;;5018435;28;20515;-87
2022/11/15 00:36:21;;;;;;;9.50;8.70;;;9.00;99.90;;;;;;5016650;28;20579;-89
2022/11/15 00:38:47;;;;;;;10.70;8.40;;;9.00;99.90;;;;;;5012420;28;20654;-89
2022/11/15 00:41:13;;;;;;;10.37;9.40;;;9.00;99.90;;;;;;5024466;28;20245;-90
2022/11/15 00:43:39;;;;;;;9.27;8.47;;;8.90;99.90;;;;;;5026994;28;20237;-87
2022/11/15 00:46:05;;;;;;;8.63;7.83;;;8.90;99.90;;;;;;5026471;28;20744;-90
2022/11/15 00:48:31;;;;;;;8.60;7.90;;;8.80;99.90;;;;;;5003644;28;20202;-89
2022/11/15 00:50:57;;;;;;;8.83;8.03;;;8.80;99.90;;;;;;5026571;28;20302;-87
2022/11/15 00:53:23;;;;;;;8.93;8.03;;;8.90;99.90;;;;;;5020888;28;20213;-86
2022/11/15 00:55:48;;;;;;;8.93;8.13;;;8.90;99.90;;;;;;5006746;28;20186;-90
2022/11/15 00:58:14;;;;;;;8.90;8.10;;;8.80;99.90;;;;;;5020950;28;20198;-86
2022/11/15 01:00:39;;;;;;;8.23;7.53;;;8.90;99.90;;;;;;5023691;28;20278;-89
2022/11/15 01:03:05;;;;;;;9.00;8.13;;;8.90;99.90;;;;;;5022020;28;20749;-87
2022/11/15 01:05:31;;;;;;;9.53;8.67;;;8.90;99.90;;;;;;5010113;28;20210;-88
2022/11/15 01:07:56;;;;;;;8.97;8.20;;;8.90;99.90;;;;;;5021016;28;20229;-87
2022/11/15 01:10:25;;;;;;;8.37;7.67;;;8.90;99.90;;;;;;5020012;28;20241;-90
2022/11/15 01:12:51;;;;;;;9.23;8.37;;;8.90;99.90;;;;;;5023362;28;20932;-90
2022/11/15 01:15:17;;;;;;;9.40;8.57;;;8.90;99.90;;;;;;5018310;28;20202;-88
2022/11/15 01:17:42;;;;;;;8.67;7.87;;;8.90;99.90;;;;;;5023683;28;20292;-85
2022/11/15 01:20:09;;;;;;;8.60;7.80;;;9.00;99.90;;;;;;5015544;28;20202;-87
2022/11/15 01:22:34;;;;;;;8.57;7.70;;;8.90;99.90;;;;;;5022054;28;20216;-91
2022/11/15 01:25:00;;;;;;;8.57;7.87;;;8.90;99.90;;;;;;5024791;28;20190;-88
2022/11/15 01:27:25;;;;;;;8.20;7.27;;;9.00;99.90;;;;;;5022268;28;20751;-87
2022/11/15 01:29:51;;;;;;;8.33;7.63;;;9.00;99.90;;;;;;5022030;28;20196;-87
2022/11/15 01:32:17;;;;;;;7.50;6.90;;;9.10;99.90;;;;;;5023598;28;20233;-91
2022/11/15 01:34:43;;;;;;;9.30;8.40;;;9.10;99.90;;;;;;5023266;28;20216;-87
2022/11/15 01:37:09;;;;;;;7.83;7.23;;;9.10;99.90;;;;;;5021099;28;20213;-89
2022/11/15 01:39:34;;;;;;;8.80;8.00;;;9.10;99.90;;;;;;5027056;28;20211;-88
2022/11/15 01:42:00;;;;;;;9.00;8.20;;;9.10;99.90;;;;;;5028410;28;20881;-88
2022/11/15 01:44:42;;;;;;;9.60;8.20;;;9.10;99.90;;;;;;5019619;28;20266;-88
2022/11/15 01:47:13;;;;;;;9.77;8.77;;;9.10;99.90;;;;;;5027423;28;20221;-90
2022/11/15 01:49:45;;;;;;;9.53;8.63;;;9.10;99.90;;;;;;5020380;28;20187;-89
2022/11/15 01:52:14;;;;;;;9.10;8.30;;;9.10;99.90;;;;;;5020120;28;20198;-86
2022/11/15 01:54:40;;;;;;;9.33;8.53;;;9.10;99.90;;;;;;5021057;28;20271;-88
2022/11/15 01:57:09;;;;;;;9.53;8.60;;;9.10;99.90;;;;;;5019063;28;20262;-90
2022/11/15 01:59:37;;;;;;;10.60;9.43;;;9.10;99.90;;;;;;5027559;28;20191;-90
2022/11/15 02:02:03;;;;;;;9.53;8.60;;;9.10;99.90;;;;;;5035964;28;20203;-90
2022/11/15 02:04:32;;;;;;;10.00;8.67;;;9.00;99.90;;;;;;5023706;28;20181;-91
2022/11/15 02:06:59;;;;;;;9.43;8.53;;;8.90;99.90;;;;;;5047270;28;20713;-86
2022/11/15 02:09:25;;;;;;;9.60;8.80;;;9.00;99.90;;;;;;5033682;28;20246;-87
2022/11/15 02:11:51;;;;;;;9.53;8.73;;;9.10;99.90;;;;;;5026329;28;20193;-88
2022/11/15 02:14:19;;;;;;;9.13;8.33;;;9.10;99.90;;;;;;5019671;28;20210;-89
2022/11/15 02:17:31;;;;;;;8.90;8.10;;;9.10;99.90;;;;;;5019998;28;20262;-87
2022/11/15 02:20:20;;;;;;;8.63;7.80;;;9.00;99.90;;;;;;5021700;28;20651;-90
2022/11/15 02:23:06;;;;;;;8.10;7.20;;;9.00;99.90;;;;;;5028186;28;20188;-87
2022/11/15 02:25:45;;;;;;;8.97;8.17;;;9.10;99.90;;;;;;5026705;28;20190;-87
2022/11/15 02:28:41;;;;;;;9.13;8.33;;;9.10;99.90;;;;;;5021701;28;20235;-91
2022/11/15 02:31:18;;;;;;;8.97;8.10;;;9.10;99.90;;;;;;5023850;28;20258;-85
2022/11/15 02:33:54;;;;;;;8.73;7.93;;;9.10;99.90;;;;;;5020626;28;20210;-88
2022/11/15 02:36:35;;;;;;;8.37;7.57;;;9.10;99.90;;;;;;5029274;28;20666;-88
2022/11/15 02:39:17;;;;;;;8.63;7.93;;;9.00;99.90;;;;;;5022342;28;20199;-87
2022/11/15 02:41:51;;;;;;;9.80;8.90;;;9.00;99.90;;;;;;5024091;28;20241;-88
2022/11/15 02:44:38;;;;;;;9.20;8.33;;;9.00;99.90;;;;;;5026866;28;20214;-87
2022/11/15 02:47:14;;;;;;;8.73;8.03;;;8.90;99.90;;;;;;5019675;28;20212;-87
2022/11/15 02:49:52;;;;;;;8.87;7.80;;;8.80;99.90;;;;;;5024809;28;20189;-87
2022/11/15 02:52:21;;;;;;;8.73;8.03;;;8.70;99.90;;;;;;5020958;28;20194;-88
2022/11/15 02:55:29;;;;;;;8.50;7.80;;;8.70;99.90;;;;;;5022196;28;20217;-88
2022/11/15 02:58:09;;;;;;;8.43;7.73;;;8.90;99.90;;;;;;5017274;28;20306;-89
2022/11/15 03:00:38;;;;;;;8.40;7.80;;;8.90;99.90;;;;;;5027488;28;20786;-88
2022/11/15 03:03:22;;;;;;;8.17;7.43;;;8.90;99.90;;;;;;5024369;28;20207;-89
2022/11/15 03:06:07;;;;;;;9.30;8.50;;;8.80;99.90;;;;;;5005516;28;20180;-87
2022/11/15 03:08:39;;;;;;;9.27;8.37;;;8.90;99.90;;;;;;5024401;28;20201;-88
2022/11/15 03:11:18;;;;;;;8.60;7.70;;;8.80;99.90;;;;;;5028395;28;20186;-89
2022/11/15 03:14:01;;;;;;;8.20;7.37;;;8.80;99.90;;;;;;5023636;28;20635;-89
2022/11/15 03:16:42;;;;;;;8.97;8.27;;;8.90;99.90;;;;;;5021741;28;20734;-89
2022/11/15 03:19:34;;;;;;;8.77;7.93;;;9.00;99.90;;;;;;5026239;28;20237;-89
2022/11/15 03:22:03;;;;;;;8.43;7.73;;;9.10;99.90;;;;;;5017531;28;20178;-89
2022/11/15 03:24:33;;;;;;;9.87;8.37;;;9.00;99.90;;;;;;5024029;28;20186;-87
2022/11/15 03:27:01;;;;;;;8.40;7.67;;;8.90;99.90;;;;;;5025264;28;20655;-87
2022/11/15 03:29:33;;;;;;;8.20;7.53;;;8.80;99.90;;;;;;5027410;28;20210;-88
2022/11/15 03:32:04;;;;;;;8.60;7.80;;;8.90;99.90;;;;;;5032665;28;20222;-89
2022/11/15 03:34:41;;;;;;;8.20;7.50;;;8.90;99.90;;;;;;5027569;28;20226;-89
2022/11/15 03:37:08;;;;;;;9.33;8.47;;;9.00;99.90;;;;;;5027717;28;20199;-90
2022/11/15 03:39:34;;;;;;;10.13;9.03;;;9.10;99.90;;;;;;5026500;28;20794;-89
2022/11/15 03:42:30;;;;;;;9.53;8.20;;;9.10;99.90;;;;;;5018256;28;20209;-87
2022/11/15 03:45:22;;;;;;;9.30;8.40;;;9.10;99.90;;;;;;5031048;28;20195;-90
2022/11/15 03:48:13;;;;;;;7.67;6.97;;;9.10;99.90;;;;;;5021940;28;20278;-88
2022/11/15 03:50:40;;;;;;;8.37;7.57;;;9.00;99.90;;;;;;5024152;28;20176;-87
2022/11/15 03:53:05;;;;;;;7.50;6.80;;;9.00;99.90;;;;;;5023134;28;20191;-87
2022/11/15 03:55:32;;;;;;;8.70;8.00;;;9.00;99.90;;;;;;5028529;28;20190;-87
2022/11/15 03:58:00;;;;;;;8.63;7.93;;;9.00;99.90;;;;;;5026999;28;20282;-90
2022/11/15 04:00:26;;;;;;;8.70;7.30;;;9.00;99.90;;;;;;5025318;28;20211;-89
2022/11/15 04:02:52;;;;;;;8.80;7.90;;;8.90;99.90;;;;;;5026283;28;20186;-87
2022/11/15 04:05:18;;;;;;;9.33;8.53;;;8.80;99.90;;;;;;5019096;28;20196;-87
2022/11/15 04:07:43;;;;;;;8.30;7.60;;;8.80;99.90;;;;;;5030808;28;20241;-89
2022/11/15 04:10:10;;;;;;;8.17;7.47;;;8.90;99.90;;;;;;5003278;28;20200;-90
2022/11/15 04:12:43;;;;;;;7.97;7.27;;;8.90;99.90;;;;;;5018300;28;20191;-88
2022/11/15 04:15:15;;;;;;;8.80;7.97;;;9.00;99.90;;;;;;5021717;28;20246;-88
2022/11/15 04:17:41;;;;;;;8.70;8.00;;;9.10;99.90;;;;;;5024820;28;20207;-87
2022/11/15 04:25:42;;;;;;;9.47;8.03;;;9.20;99.90;;;;;;5022219;28;20189;-87
2022/11/15 04:28:07;;;;;;;9.40;8.60;;;9.20;99.90;;;;;;5033689;28;20302;-87
2022/11/15 04:30:33;;;;;;;7.80;7.10;;;9.20;99.90;;;;;;5026540;28;20218;-87
2022/11/15 04:32:59;;;;;;;8.53;7.83;;;9.10;99.90;;;;;;5014322;28;20186;-88
2022/11/15 04:35:24;;;;;;;9.30;8.60;;;9.20;99.90;;;;;;5025458;28;20182;-88
2022/11/15 04:37:50;;;;;;;8.83;8.13;;;9.20;99.90;;;;;;5026844;28;20225;-91
2022/11/15 04:40:16;;;;;;;10.10;9.30;;;9.20;99.90;;;;;;5030423;28;20198;-89
2022/11/15 04:42:44;;;;;;;9.40;8.47;;;9.30;99.90;;;;;;5023280;28;20175;-88
2022/11/15 04:45:10;;;;;;;9.07;8.27;;;9.30;99.90;;;;;;5011102;28;20691;-86
2022/11/15 04:47:36;;;;;;;10.57;9.50;;;9.20;99.90;;;;;;5030193;28;20210;-87
2022/11/15 04:50:02;;;;;;;10.43;9.53;;;9.20;99.90;;;;;;5032973;28;20196;-88
2022/11/15 04:52:28;;;;;;;10.27;9.27;;;9.20;99.90;;;;;;5031635;28;20258;-91
2022/11/15 04:54:54;;;;;;;10.40;9.43;;;9.10;99.90;;;;;;5031210;28;20698;-88
2022/11/15 04:57:19;;;;;;;9.87;9.07;;;9.10;99.90;;;;;;5028571;28;20215;-91
2022/11/15 04:59:45;;;;;;;9.50;8.60;;;9.10;99.90;;;;;;5028930;28;20187;-89
2022/11/15 05:02:11;;;;;;;8.97;8.13;;;9.20;99.90;;;;;;5012380;28;20257;-89
2022/11/15 05:04:36;;;;;;;8.43;7.80;;;9.30;99.90;;;;;;5032066;28;20202;-87
2022/11/15 05:07:04;;;;;;;9.23;8.43;;;9.30;99.90;;;;;;5022683;28;20846;-90
2022/11/15 05:09:29;;;;;;;9.00;8.17;;;9.40;99.90;;;;;;5028890;28;20663;-90
2022/11/15 05:11:55;;;;;;;8.83;8.03;;;9.40;99.90;;;;;;5008301;28;20184;-89
2022/11/15 05:14:21;;;;;;;9.90;8.97;;;9.40;99.90;;;;;;5027969;28;20195;-87
2022/11/15 05:16:46;;;;;;;9.67;8.87;;;9.30;99.90;;;;;;5028347;28;20786;-88
2022/11/15 05:19:12;;;;;;;9.43;8.50;;;9.30;99.90;;;;;;5029987;28;20188;-88
2022/11/15 05:21:38;;;;;;;8.93;8.13;;;9.10;99.90;;;;;;5014997;28;20194;-91
2022/11/15 05:24:04;;;;;;;8.40;7.40;;;9.20;99.90;;;;;;5017729;28;20499;-87
2022/11/15 05:26:30;;;;;;;9.27;8.30;;;9.20;99.90;;;;;;5030389;28;20207;-91
2022/11/15 05:28:57;;;;;;;9.17;8.33;;;9.10;99.90;;;;;;5014053;28;20256;-90
2022/11/15 05:31:24;;;;;;;9.03;8.13;;;9.30;99.90;;;;;;5026297;28;20219;-89
2022/11/15 05:33:53;;;;;;;9.53;8.27;;;9.20;99.90;;;;;;5028573;28;20320;-88
2022/11/15 05:36:57;;;;;;;10.40;9.17;;;9.20;99.90;;;;;;5024061;28;20189;-90
2022/11/15 05:39:23;;;;;;;11.93;10.60;;;9.30;99.90;;;;;;5022216;28;20218;-89
2022/11/15 05:41:57;;;;;;;9.73;8.87;;;9.30;99.90;;;;;;5024882;28;20183;-90
2022/11/15 05:44:25;;;;;;;168.50;153.83;;;9.30;99.90;;;;;;5034920;28;20181;-93
2022/11/15 05:46:56;;;;;;;53.50;49.00;;;9.40;99.90;;;;;;5048460;28;20219;-93
2022/11/15 05:49:29;;;;;;;11.67;10.63;;;9.30;99.90;;;;;;5050846;28;20176;-91
2022/11/15 05:51:56;;;;;;;15.07;13.77;;;9.30;99.90;;;;;;5033921;28;20179;-88
2022/11/15 05:54:23;;;;;;;12.57;11.40;;;9.20;99.90;;;;;;5028199;28;20215;-89
2022/11/15 05:56:49;;;;;;;42.23;39.23;;;9.30;99.90;;;;;;5029196;28;20546;-89
2022/11/15 05:59:16;;;;;;;12.97;11.80;;;9.30;99.90;;;;;;5024692;28;20753;-89
2022/11/15 06:01:42;;;;;;;10.10;9.07;;;9.10;99.90;;;;;;5025682;28;20188;-90
2022/11/15 06:04:07;;;;;;;10.10;9.00;;;9.30;99.90;;;;;;5028162;28;20249;-89
2022/11/15 06:06:33;;;;;;;9.83;8.93;;;9.30;99.90;;;;;;5023076;28;20227;-89
2022/11/15 06:08:59;;;;;;;9.67;8.70;;;9.20;99.90;;;;;;5027234;28;20192;-91
2022/11/15 06:11:24;;;;;;;11.27;10.33;;;9.20;99.90;;;;;;5025459;28;20220;-89
2022/11/15 06:13:50;;;;;;;9.23;8.43;;;9.10;99.90;;;;;;5006360;28;20208;-91
2022/11/15 06:16:15;;;;;;;9.57;8.57;;;9.20;99.90;;;;;;5036563;28;20198;-88
2022/11/15 06:18:41;;;;;;;10.07;9.17;;;9.20;99.90;;;;;;5033508;28;20190;-89
2022/11/15 06:21:07;;;;;;;10.00;9.20;;;9.20;99.90;;;;;;5028692;28;20206;-90
2022/11/15 06:23:34;;;;;;;10.97;10.07;;;9.20;99.90;;;;;;5026733;28;20192;-87
2022/11/15 06:26:01;;;;;;;11.27;10.37;;;9.10;99.90;;;;;;5026237;28;20253;-89
2022/11/15 06:28:31;;;;;;;11.13;10.13;;;9.20;99.90;;;;;;5025884;28;20235;-90
2022/11/15 06:31:05;;;;;;;11.93;10.97;;;9.20;99.90;;;;;;5021580;28;20680;-89
2022/11/15 06:33:31;;;;;;;13.57;12.43;;;9.30;99.90;;;;;;5025007;28;20241;-88
2022/11/15 06:36:04;;;;;;;12.80;11.70;;;9.30;99.90;;;;;;5036819;28;20179;-89
2022/11/15 06:38:30;;;;;;;10.57;9.67;;;9.30;99.90;;;;;;5026695;28;20227;-88
2022/11/15 06:41:05;;;;;;;11.27;10.30;;;9.20;99.90;;;;;;5034033;28;20209;-90
2022/11/15 06:43:30;;;;;;;11.03;10.03;;;9.00;99.90;;;;;;5023240;28;20188;-91
2022/11/15 06:46:01;;;;;;;10.27;9.37;;;9.10;99.90;;;;;;5027883;28;20199;-88
2022/11/15 06:48:28;;;;;;;13.33;12.13;;;9.20;99.90;;;;;;5021786;28;20610;-86
2022/11/15 06:50:58;;;;;;;12.13;11.03;;;9.20;99.90;;;;;;5013783;28;20187;-88
2022/11/15 06:53:24;;;;;;;12.40;11.00;;;9.20;99.90;;;;;;5035061;28;20761;-87
2022/11/15 06:55:50;;;;;;;12.43;11.33;;;9.20;99.90;;;;;;5028863;28;20187;-88
2022/11/15 06:58:16;;;;;;;14.70;11.27;;;9.30;99.90;;;;;;5023785;28;20704;-88
2022/11/15 07:00:42;;;;;;;11.23;10.23;;;9.20;99.90;;;;;;5026106;28;20672;-88
2022/11/15 07:03:08;;;;;;;12.30;11.17;;;9.20;99.90;;;;;;5027175;28;20192;-89
2022/11/15 07:05:34;;;;;;;11.83;10.87;;;9.10;99.90;;;;;;5033145;28;20274;-88
2022/11/15 07:08:00;;;;;;;11.73;10.73;;;9.30;99.90;;;;;;5036907;28;20199;-87
2022/11/15 07:10:26;;;;;;;11.50;10.50;;;9.30;99.90;;;;;;5018437;28;20195;-88
2022/11/15 07:12:52;;;;;;;13.07;11.77;;;9.30;99.90;;;;;;5030589;28;20199;-89
2022/11/15 07:15:20;;;;;;;12.83;11.50;;;9.30;99.90;;;;;;5011932;28;20714;-87
2022/11/15 07:17:45;;;;;;;11.87;10.77;;;9.40;99.90;;;;;;5033613;28;20207;-87
2022/11/15 07:20:13;;;;;;;13.27;12.07;;;9.40;99.90;;;;;;5027093;28;20199;-87
2022/11/15 07:22:39;;;;;;;14.03;12.73;;;9.40;99.90;;;;;;5030279;28;20177;-89
2022/11/15 07:25:05;;;;;;;15.00;13.60;;;9.40;99.90;;;;;;5027503;28;20249;-88
2022/11/15 07:27:31;;;;;;;14.67;13.43;;;9.50;99.90;;;;;;5024061;28;20247;-90
2022/11/15 07:29:57;;;;;;;16.07;14.57;;;9.50;99.90;;;;;;5018652;28;20277;-90
2022/11/15 07:32:22;;;;;;;16.57;12.17;;;9.50;99.90;;;;;;5030178;28;20188;-85
2022/11/15 07:34:48;;;;;;;17.57;12.53;;;9.50;99.90;;;;;;5028592;28;20216;-87
2022/11/15 07:37:13;;;;;;;20.53;12.00;;;9.40;99.90;;;;;;5025393;28;20223;-87
2022/11/15 07:39:39;;;;;;;14.27;10.80;;;9.40;99.90;;;;;;5032639;28;20214;-88
2022/11/15 07:44:49;;;;;;;11.50;10.37;;;9.60;99.90;;;;;;5022407;28;20192;-87
2022/11/15 07:47:14;;;;;;;11.30;10.27;;;9.60;99.90;;;;;;5028398;28;20208;-88
2022/11/15 07:49:40;;;;;;;12.10;10.83;;;9.50;99.90;;;;;;5030460;28;20184;-88
2022/11/15 07:52:06;;;;;;;12.00;10.80;;;9.50;99.90;;;;;;5028944;28;20199;-88
2022/11/15 07:54:31;;;;;;;10.87;9.87;;;9.50;99.90;;;;;;5021253;28;20249;-88
2022/11/15 07:57:00;;;;;;;11.43;10.33;;;9.50;99.90;;;;;;5019344;28;20973;-87
2022/11/15 07:59:26;;;;;;;11.10;10.10;;;9.50;99.90;;;;;;5007778;28;20192;-87
2022/11/15 08:01:54;;;;;;;9.60;8.70;;;9.50;99.90;;;;;;5025170;28;20238;-86
2022/11/15 08:04:19;;;;;;;9.17;8.33;;;9.60;99.90;;;;;;5031997;28;20212;-91
2022/11/15 08:06:45;;;;;;;9.23;8.33;;;9.70;99.90;;;;;;5047791;28;20200;-91
2022/11/15 08:09:11;;;;;;;7.70;6.83;;;9.70;99.90;;;;;;5048108;28;20173;-93
2022/11/15 08:11:37;;;;;;;8.77;7.90;;;9.90;99.90;;;;;;5048192;28;20210;-86
2022/11/15 08:14:05;;;;;;;12.27;11.07;;;10.00;99.90;;;;;;5037635;28;20546;-90
2022/11/15 08:16:31;;;;;;;11.07;10.13;;;9.90;99.90;;;;;;5025932;28;20212;-88
2022/11/15 08:18:56;;;;;;;11.70;10.60;;;10.00;99.90;;;;;;5010208;28;20559;-87
2022/11/15 08:21:22;;;;;;;10.03;9.07;;;10.10;99.90;;;;;;5026964;28;20653;-86
2022/11/15 08:23:48;;;;;;;13.23;12.00;;;10.00;99.90;;;;;;5027568;28;20211;-88
2022/11/15 08:26:14;;;;;;;12.03;10.97;;;10.10;99.90;;;;;;5036445;28;20184;-86
2022/11/15 08:28:40;;;;;;;11.83;10.63;;;10.10;99.90;;;;;;5034145;28;20265;-86
2022/11/15 08:31:06;;;;;;;11.33;10.27;;;10.20;99.90;;;;;;5043123;28;20185;-88
2022/11/15 08:33:33;;;;;;;10.03;9.07;;;10.20;99.90;;;;;;5032897;28;20320;-87
2022/11/15 08:36:01;;;;;;;10.33;9.43;;;10.30;99.90;;;;;;5025984;28;20763;-86
2022/11/15 08:38:28;;;;;;;9.33;8.20;;;10.60;99.90;;;;;;5022466;28;20247;-90
2022/11/15 08:41:04;;;;;;;10.43;9.03;;;10.50;99.90;;;;;;5022131;28;20576;-88
2022/11/15 08:43:29;;;;;;;10.83;8.33;;;10.60;99.90;;;;;;5014324;28;20215;-89
2022/11/15 08:45:58;;;;;;;9.53;8.73;;;10.60;99.90;;;;;;5028827;28;20661;-89
2022/11/15 08:48:24;;;;;;;10.90;9.90;;;10.60;99.90;;;;;;5027121;28;20208;-88
2022/11/15 08:50:54;;;;;;;14.00;12.87;;;10.60;99.90;;;;;;5032573;28;20549;-88
2022/11/15 08:53:19;;;;;;;14.30;13.10;;;10.70;99.90;;;;;;5023893;28;20246;-89
2022/11/15 08:55:45;;;;;;;13.07;12.07;;;10.70;99.90;;;;;;5023636;28;20837;-90
2022/11/15 08:58:11;;;;;;;13.50;12.40;;;10.70;99.90;;;;;;5024771;28;20212;-90
2022/11/15 09:00:36;;;;;;;11.50;10.60;;;10.70;99.90;;;;;;5027071;28;20180;-90
2022/11/15 09:03:06;;;;;;;11.63;10.57;;;10.70;99.90;;;;;;5025903;28;20300;-88
2022/11/15 09:05:32;;;;;;;8.30;7.53;;;10.90;99.90;;;;;;5028937;28;20190;-88
2022/11/15 09:07:58;;;;;;;8.63;7.73;;;11.00;99.90;;;;;;5032671;28;20270;-89
2022/11/15 09:10:24;;;;;;;8.93;8.13;;;11.10;99.90;;;;;;5031144;28;20198;-89
2022/11/15 09:12:50;;;;;;;9.37;8.27;;;11.10;99.90;;;;;;5029285;28;20212;-89
2022/11/15 09:15:16;;;;;;;9.40;8.60;;;11.10;99.90;;;;;;5032644;28;20318;-89
2022/11/15 09:17:42;;;;;;;9.73;8.77;;;11.10;99.90;;;;;;5032162;28;20204;-88
2022/11/15 09:20:08;;;;;;;8.43;7.73;;;11.00;99.90;;;;;;5030708;28;20736;-89
2022/11/15 09:22:34;;;;;;;9.07;8.23;;;10.90;99.90;;;;;;5028114;28;20201;-87
2022/11/15 09:25:00;;;;;;;8.83;8.03;;;11.10;99.90;;;;;;5031505;28;20189;-88
2022/11/15 09:27:29;;;;;;;8.30;7.60;;;11.20;99.90;;;;;;5034991;28;20224;-94
2022/11/15 09:29:55;;;;;;;9.63;8.50;;;11.20;99.90;;;;;;5051715;28;20181;-92
2022/11/15 09:32:22;;;;;;;10.17;8.60;;;11.20;99.90;;;;;;5052205;28;20178;-92
2022/11/15 09:34:48;;;;;;;10.70;9.70;;;11.20;99.90;;;;;;5041529;28;20303;-87
2022/11/15 09:37:14;;;;;;;9.17;8.33;;;11.30;99.90;;;;;;5029736;28;20273;-93
2022/11/15 09:39:39;;;;;;;8.17;7.50;;;11.50;99.90;;;;;;5030397;28;20228;-92
2022/11/15 09:42:12;;;;;;;7.70;6.97;;;11.50;99.90;;;;;;5028870;28;20272;-86
2022/11/15 09:45:02;;;;;;;7.60;6.87;;;11.50;99.90;;;;;;5026218;28;20194;-89
2022/11/15 09:47:27;;;;;;;18.03;16.40;;;11.60;99.90;;;;;;5027913;28;20304;-90
2022/11/15 09:49:55;;;;;;;12.00;10.90;;;11.50;99.90;;;;;;5030746;28;20703;-87
2022/11/15 09:52:21;;;;;;;7.70;6.90;;;11.60;99.90;;;;;;5028210;28;20221;-88
2022/11/15 09:54:50;;;;;;;7.67;6.97;;;11.50;99.90;;;;;;5028680;28;20222;-88
2022/11/15 09:57:31;;;;;;;7.63;6.87;;;11.50;99.90;;;;;;5030840;28;20238;-88
2022/11/15 09:59:56;;;;;;;7.70;7.00;;;11.50;99.90;;;;;;5032242;28;20268;-88
2022/11/15 10:02:37;;;;;;;7.17;6.57;;;11.50;99.90;;;;;;5029129;28;20653;-87
2022/11/15 10:05:04;;;;;;;6.97;6.37;;;11.50;99.90;;;;;;5029796;28;20236;-89
2022/11/15 10:08:07;;;;;;;7.40;6.70;;;11.50;99.90;;;;;;5029768;28;20884;-88
2022/11/15 10:10:48;;;;;;;28.87;26.17;;;11.50;99.90;;;;;;5029951;28;20201;-90
2022/11/15 10:13:22;;;;;;;8.63;7.87;;;11.50;99.90;;;;;;5010989;28;20687;-89
2022/11/15 10:15:49;;;;;;;7.67;6.83;;;11.50;99.90;;;;;;5036319;28;20194;-91
2022/11/15 10:18:18;;;;;;;7.57;6.87;;;11.30;99.90;;;;;;5034369;28;20211;-88
2022/11/15 10:20:58;;;;;;;9.00;6.90;;;11.30;99.90;;;;;;5035173;28;20282;-89
2022/11/15 10:23:23;;;;;;;8.37;7.07;;;11.20;99.90;;;;;;5036665;28;20200;-90
2022/11/15 10:25:55;;;;;;;8.00;7.30;;;11.20;99.90;;;;;;5028014;28;20188;-88
2022/11/15 10:28:28;;;;;;;7.73;6.70;;;11.40;99.90;;;;;;5033086;28;20263;-88
2022/11/15 10:31:00;;;;;;;7.27;6.67;;;11.50;99.90;;;;;;5041647;28;20191;-90
2022/11/15 10:33:26;;;;;;;6.97;6.03;;;11.50;99.90;;;;;;5030823;28;20665;-87
2022/11/15 10:36:12;;;;;;;7.30;6.67;;;11.50;99.90;;;;;;5024297;28;20191;-88
2022/11/15 10:38:50;;;;;;;7.93;6.73;;;11.60;99.90;;;;;;5027238;28;20204;-89
2022/11/15 10:41:15;;;;;;;7.30;6.60;;;11.50;99.90;;;;;;5031593;28;20193;-89
2022/11/15 10:43:42;;;;;;;11.03;7.53;;;11.60;99.90;;;;;;5034172;28;20216;-88
2022/11/15 10:46:21;;;;;;;7.57;6.87;;;11.80;99.90;;;;;;5037216;28;20286;-89
2022/11/15 10:48:47;;;;;;;6.83;6.30;;;11.70;99.90;;;;;;5037900;28;20190;-87
2022/11/15 10:51:28;;;;;;;7.23;6.53;;;11.70;99.90;;;;;;5044433;28;20188;-86
2022/11/15 10:53:57;;;;;;;7.07;6.47;;;11.70;99.90;;;;;;5036098;28;20239;-88
2022/11/15 10:56:25;;;;;;;9.07;6.93;;;11.70;99.90;;;;;;5040201;28;20226;-90
2022/11/15 10:58:55;;;;;;;8.37;7.57;;;11.80;99.90;;;;;;5040575;28;20480;-86
2022/11/15 11:01:31;;;;;;;8.37;7.57;;;11.80;99.90;;;;;;5024194;28;20181;-84
2022/11/15 11:04:04;;;;;;;11.00;9.90;;;11.90;99.90;;;;;;5038747;28;20193;-88
2022/11/15 11:06:49;;;;;;;10.17;9.30;;;12.00;99.90;;;;;;5019847;28;20251;-88
2022/11/15 11:09:36;;;;;;;8.93;8.10;;;12.10;99.90;;;;;;5030891;28;20639;-88
2022/11/15 11:12:04;;;;;;;10.03;9.00;;;12.40;99.90;;;;;;5017750;28;20182;-87
2022/11/15 11:14:32;;;;;;;10.13;9.20;;;12.40;99.90;;;;;;5035688;28;20203;-91
2022/11/15 11:17:26;;;;;;;12.60;9.00;;;12.30;99.90;;;;;;5035152;28;20208;-90
2022/11/15 11:20:12;;;;;;;10.40;9.30;;;12.50;99.90;;;;;;5040605;28;20200;-89
2022/11/15 11:23:01;;;;;;;8.90;8.07;;;12.70;99.90;;;;;;5051994;28;20229;-91
2022/11/15 11:25:39;;;;;;;9.30;8.27;;;12.70;99.90;;;;;;5018431;28;20310;-87
2022/11/15 11:28:20;;;;;;;7.37;6.63;;;12.90;99.90;;;;;;5028993;28;20232;-88
2022/11/15 11:31:21;;;;;;;6.20;5.70;;;13.00;99.90;;;;;;5028632;28;20207;-87
2022/11/15 11:33:57;;;;;;;5.80;5.40;;;13.10;99.90;;;;;;5012560;28;20217;-90
2022/11/15 11:36:48;;;;;;;6.27;5.67;;;13.20;99.90;;;;;;5009191;28;20681;-91
2022/11/15 11:39:19;;;;;;;6.77;5.50;;;13.10;99.90;;;;;;5027442;28;20197;-89
2022/11/15 11:42:09;;;;;;;6.13;5.27;;;13.30;99.90;;;;;;5026856;28;20195;-90
2022/11/15 11:44:56;;;;;;;5.80;5.30;;;13.50;99.90;;;;;;5024009;28;20200;-90
2022/11/15 11:47:28;;;;;;;7.20;5.23;;;13.60;99.90;;;;;;5024727;28;20983;-89
2022/11/15 11:50:05;;;;;;;5.37;4.87;;;13.50;99.90;;;;;;5024833;28;20752;-89
2022/11/15 11:52:34;;;;;;;5.20;4.80;;;13.40;99.90;;;;;;5024060;28;20189;-89
2022/11/15 11:55:18;;;;;;;5.67;4.97;;;13.20;99.90;;;;;;5027145;28;20267;-89
2022/11/15 11:58:17;;;;;;;4.83;4.43;;;13.40;99.90;;;;;;5026677;28;20317;-90
2022/11/15 12:00:52;;;;;;;6.20;5.20;;;13.40;99.90;;;;;;5025957;28;20195;-91
2022/11/15 12:03:36;;;;;;;7.17;6.47;;;13.40;99.90;;;;;;5023161;28;20279;-89
2022/11/15 12:06:27;;;;;;;7.00;5.60;;;13.50;99.90;;;;;;5026889;28;20216;-90
2022/11/15 12:09:02;;;;;;;5.80;5.23;;;13.40;99.90;;;;;;4983487;28;20349;-89
2022/11/15 12:12:05;;;;;;;6.10;5.60;;;13.40;99.90;;;;;;5023143;28;20561;-90
2022/11/15 12:14:48;;;;;;;6.73;6.13;;;13.40;99.90;;;;;;5026129;28;20197;-89
2022/11/15 12:17:17;;;;;;;7.43;6.47;;;13.40;99.90;;;;;;5024188;28;20571;-90
2022/11/15 12:19:43;;;;;;;6.40;5.80;;;13.50;99.90;;;;;;5030483;28;20238;-89
2022/11/15 12:22:20;;;;;;;8.07;6.43;;;13.70;99.90;;;;;;5022569;28;20266;-89
2022/11/15 12:25:08;;;;;;;7.80;6.90;;;13.80;99.90;;;;;;5021939;28;20458;-91
2022/11/15 12:27:56;;;;;;;5.40;4.90;;;13.80;99.90;;;;;;5034133;28;20234;-89
2022/11/15 12:30:23;;;;;;;5.77;5.27;;;14.00;99.90;;;;;;5030614;28;20197;-88
2022/11/15 12:33:00;;;;;;;16.47;14.73;;;14.20;99.90;;;;;;5024795;28;20197;-90
2022/11/15 12:35:39;;;;;;;5.93;5.43;;;14.30;99.90;;;;;;5024593;28;20297;-89
2022/11/15 12:38:10;;;;;;;5.70;5.20;;;14.40;99.90;;;;;;5026783;28;20242;-89
2022/11/15 12:40:38;;;;;;;6.17;5.20;;;14.60;99.90;;;;;;5026304;28;20219;-89
2022/11/15 12:43:12;;;;;;;7.07;5.40;;;14.70;99.90;;;;;;5027284;28;20188;-90
2022/11/15 12:45:40;;;;;;;5.27;4.87;;;14.70;99.90;;;;;;5025624;28;20795;-89
2022/11/15 12:48:18;;;;;;;5.47;5.03;;;14.50;99.90;;;;;;5027145;28;21215;-90
2022/11/15 12:50:50;;;;;;;6.73;5.80;;;14.60;99.90;;;;;;5026475;28;20185;-89
2022/11/15 12:53:25;;;;;;;6.00;5.30;;;14.50;99.90;;;;;;5023671;28;20179;-88
2022/11/15 12:56:19;;;;;;;5.20;4.80;;;14.70;99.90;;;;;;5028718;28;20252;-88
2022/11/15 12:58:52;;;;;;;5.37;4.87;;;14.70;99.90;;;;;;5017001;28;20218;-88
2022/11/15 13:01:30;;;;;;;4.23;3.90;;;14.70;99.90;;;;;;5005778;28;20794;-88
2022/11/15 13:04:14;;;;;;;6.53;4.83;;;14.70;99.60;;;;;;5027159;28;20189;-89
2022/11/15 13:06:39;;;;;;;4.77;4.37;;;14.60;99.90;;;;;;5038551;28;20252;-90
2022/11/15 13:09:37;;;;;;;4.93;4.53;;;14.40;99.90;;;;;;5041925;28;20207;-91
2022/11/15 13:12:07;;;;;;;5.73;5.23;;;14.30;99.90;;;;;;5045937;28;20196;-92
2022/11/15 13:14:45;;;;;;;6.43;5.83;;;14.20;99.90;;;;;;5048764;28;20289;-92
2022/11/15 13:17:23;;;;;;;5.50;4.90;;;14.20;99.90;;;;;;5030111;28;20202;-93